sensor_id;sensor_type;location;lat;lon;timestamp;temperature;humidity
15105;DHT22;7653;48.994;9.212;2023-05-02T00:00:14;9.90;83.50
15105;DHT22;7653;48.994;9.212;2023-05-02T00:02:40;9.70;85.30
15105;DHT22;7653;48.994;9.212;2023-05-02T00:05:06;9.50;86.20
15105;DHT22;7653;48.994;9.212;2023-05-02T00:07:32;9.50;86.70
15105;DHT22;7653;48.994;9.212;2023-05-02T00:09:58;9.60;87.80
15105;DHT22;7653;48.994;9.212;2023-05-02T00:12:26;9.60;87.30
15105;DHT22;7653;48.994;9.212;2023-05-02T00:14:52;9.60;86.70
15105;DHT22;7653;48.994;9.212;2023-05-02T00:17:19;9.40;85.80
15105;DHT22;7653;48.994;9.212;2023-05-02T00:19:45;9.40;87.10
15105;DHT22;7653;48.994;9.212;2023-05-02T00:22:11;9.50;87.50
15105;DHT22;7653;48.994;9.212;2023-05-02T00:24:37;9.60;88.60
15105;DHT22;7653;48.994;9.212;2023-05-02T00:27:03;9.60;87.10
15105;DHT22;7653;48.994;9.212;2023-05-02T00:29:29;9.60;86.10
15105;DHT22;7653;48.994;9.212;2023-05-02T00:31:55;9.30;85.70
15105;DHT22;7653;48.994;9.212;2023-05-02T00:34:21;9.20;87.80
15105;DHT22;7653;48.994;9.212;2023-05-02T00:36:47;9.20;88.30
15105;DHT22;7653;48.994;9.212;2023-05-02T00:39:13;9.20;88.20
15105;DHT22;7653;48.994;9.212;2023-05-02T00:41:38;9.00;86.90
15105;DHT22;7653;48.994;9.212;2023-05-02T00:44:04;9.10;88.20
15105;DHT22;7653;48.994;9.212;2023-05-02T00:46:30;8.90;86.10
15105;DHT22;7653;48.994;9.212;2023-05-02T00:48:55;8.90;89.10
15105;DHT22;7653;48.994;9.212;2023-05-02T00:51:21;9.00;89.90
15105;DHT22;7653;48.994;9.212;2023-05-02T00:53:48;9.10;90.10
15105;DHT22;7653;48.994;9.212;2023-05-02T00:56:13;9.20;88.50
15105;DHT22;7653;48.994;9.212;2023-05-02T00:58:39;9.10;88.20
15105;DHT22;7653;48.994;9.212;2023-05-02T01:14:14;8.90;85.90
15105;DHT22;7653;48.994;9.212;2023-05-02T01:16:42;8.90;87.90
15105;DHT22;7653;48.994;9.212;2023-05-02T01:19:47;9.00;88.10
15105;DHT22;7653;48.994;9.212;2023-05-02T01:22:07;9.00;86.30
15105;DHT22;7653;48.994;9.212;2023-05-02T01:27:33;8.80;87.90
15105;DHT22;7653;48.994;9.212;2023-05-02T01:30:02;8.80;89.60
15105;DHT22;7653;48.994;9.212;2023-05-02T01:32:30;8.90;90.70
15105;DHT22;7653;48.994;9.212;2023-05-02T01:34:58;8.80;90.60
15105;DHT22;7653;48.994;9.212;2023-05-02T01:37:26;8.90;90.60
15105;DHT22;7653;48.994;9.212;2023-05-02T01:39:54;9.00;90.50
15105;DHT22;7653;48.994;9.212;2023-05-02T01:42:21;9.00;89.90
15105;DHT22;7653;48.994;9.212;2023-05-02T01:44:49;8.80;88.40
15105;DHT22;7653;48.994;9.212;2023-05-02T01:47:16;8.70;89.00
15105;DHT22;7653;48.994;9.212;2023-05-02T01:49:44;8.70;90.00
15105;DHT22;7653;48.994;9.212;2023-05-02T01:52:11;8.70;90.60
15105;DHT22;7653;48.994;9.212;2023-05-02T01:54:39;8.70;90.70
15105;DHT22;7653;48.994;9.212;2023-05-02T01:57:07;8.80;90.80
15105;DHT22;7653;48.994;9.212;2023-05-02T01:59:34;8.70;90.80
15105;DHT22;7653;48.994;9.212;2023-05-02T02:02:01;8.80;90.60
15105;DHT22;7653;48.994;9.212;2023-05-02T02:04:29;8.80;90.90
15105;DHT22;7653;48.994;9.212;2023-05-02T02:07:02;8.80;90.50
15105;DHT22;7653;48.994;9.212;2023-05-02T02:09:30;8.80;90.80
15105;DHT22;7653;48.994;9.212;2023-05-02T02:12:10;8.80;90.50
15105;DHT22;7653;48.994;9.212;2023-05-02T02:14:37;8.70;90.80
15105;DHT22;7653;48.994;9.212;2023-05-02T02:17:24;8.70;91.00
15105;DHT22;7653;48.994;9.212;2023-05-02T02:19:52;8.70;91.00
15105;DHT22;7653;48.994;9.212;2023-05-02T02:22:20;8.50;90.00
15105;DHT22;7653;48.994;9.212;2023-05-02T02:24:47;8.50;90.40
15105;DHT22;7653;48.994;9.212;2023-05-02T02:27:14;8.50;90.90
15105;DHT22;7653;48.994;9.212;2023-05-02T02:29:39;8.70;90.90
15105;DHT22;7653;48.994;9.212;2023-05-02T02:32:05;8.70;90.60
15105;DHT22;7653;48.994;9.212;2023-05-02T02:34:31;8.40;90.10
15105;DHT22;7653;48.994;9.212;2023-05-02T02:37:01;8.50;91.80
15105;DHT22;7653;48.994;9.212;2023-05-02T02:42:29;8.50;90.40
15105;DHT22;7653;48.994;9.212;2023-05-02T02:48:54;8.60;90.70
15105;DHT22;7653;48.994;9.212;2023-05-02T02:51:08;8.30;90.40
15105;DHT22;7653;48.994;9.212;2023-05-02T02:56:29;8.40;91.80
15105;DHT22;7653;48.994;9.212;2023-05-02T03:01:42;8.30;92.10
15105;DHT22;7653;48.994;9.212;2023-05-02T03:04:10;8.30;92.00
15105;DHT22;7653;48.994;9.212;2023-05-02T03:06:36;8.30;91.90
15105;DHT22;7653;48.994;9.212;2023-05-02T03:09:02;8.40;92.00
15105;DHT22;7653;48.994;9.212;2023-05-02T03:11:28;8.40;92.10
15105;DHT22;7653;48.994;9.212;2023-05-02T03:13:54;8.30;92.70
15105;DHT22;7653;48.994;9.212;2023-05-02T03:16:38;8.20;92.30
15105;DHT22;7653;48.994;9.212;2023-05-02T03:19:04;8.30;92.80
15105;DHT22;7653;48.994;9.212;2023-05-02T03:21:30;8.40;92.90
15105;DHT22;7653;48.994;9.212;2023-05-02T03:24:01;8.50;93.40
15105;DHT22;7653;48.994;9.212;2023-05-02T03:26:27;8.70;93.40
15105;DHT22;7653;48.994;9.212;2023-05-02T03:28:53;8.70;93.30
15105;DHT22;7653;48.994;9.212;2023-05-02T03:31:19;8.60;93.10
15105;DHT22;7653;48.994;9.212;2023-05-02T03:33:46;8.70;93.00
15105;DHT22;7653;48.994;9.212;2023-05-02T03:36:11;8.80;93.00
15105;DHT22;7653;48.994;9.212;2023-05-02T03:38:37;8.60;93.00
15105;DHT22;7653;48.994;9.212;2023-05-02T03:41:03;8.60;93.70
15105;DHT22;7653;48.994;9.212;2023-05-02T03:43:29;8.70;94.00
15105;DHT22;7653;48.994;9.212;2023-05-02T03:45:55;8.70;94.00
15105;DHT22;7653;48.994;9.212;2023-05-02T03:48:20;8.80;94.20
15105;DHT22;7653;48.994;9.212;2023-05-02T03:50:47;8.80;94.30
15105;DHT22;7653;48.994;9.212;2023-05-02T03:53:13;8.90;93.90
15105;DHT22;7653;48.994;9.212;2023-05-02T03:55:41;8.60;93.80
15105;DHT22;7653;48.994;9.212;2023-05-02T03:58:08;8.60;93.70
15105;DHT22;7653;48.994;9.212;2023-05-02T04:00:34;8.60;94.10
15105;DHT22;7653;48.994;9.212;2023-05-02T04:03:00;8.60;94.00
15105;DHT22;7653;48.994;9.212;2023-05-02T04:05:26;8.70;94.50
15105;DHT22;7653;48.994;9.212;2023-05-02T04:07:52;8.90;94.50
15105;DHT22;7653;48.994;9.212;2023-05-02T04:10:17;9.00;94.60
15105;DHT22;7653;48.994;9.212;2023-05-02T04:12:43;9.00;93.90
15105;DHT22;7653;48.994;9.212;2023-05-02T04:15:09;9.00;94.00
15105;DHT22;7653;48.994;9.212;2023-05-02T04:17:36;9.00;93.40
15105;DHT22;7653;48.994;9.212;2023-05-02T04:20:01;8.90;94.00
15105;DHT22;7653;48.994;9.212;2023-05-02T04:22:27;9.00;93.90
15105;DHT22;7653;48.994;9.212;2023-05-02T04:24:53;8.90;93.80
15105;DHT22;7653;48.994;9.212;2023-05-02T04:27:19;8.80;94.50
15105;DHT22;7653;48.994;9.212;2023-05-02T04:29:48;8.90;94.90
15105;DHT22;7653;48.994;9.212;2023-05-02T04:32:14;9.10;95.00
15105;DHT22;7653;48.994;9.212;2023-05-02T04:34:40;9.10;95.00
15105;DHT22;7653;48.994;9.212;2023-05-02T04:37:06;9.10;95.00
15105;DHT22;7653;48.994;9.212;2023-05-02T04:39:32;9.20;95.00
15105;DHT22;7653;48.994;9.212;2023-05-02T04:41:58;9.20;94.90
15105;DHT22;7653;48.994;9.212;2023-05-02T04:44:24;9.30;94.80
15105;DHT22;7653;48.994;9.212;2023-05-02T04:46:49;9.40;94.10
15105;DHT22;7653;48.994;9.212;2023-05-02T04:49:15;9.20;93.20
15105;DHT22;7653;48.994;9.212;2023-05-02T04:51:41;9.10;93.20
15105;DHT22;7653;48.994;9.212;2023-05-02T04:54:07;9.20;93.80
15105;DHT22;7653;48.994;9.212;2023-05-02T04:56:33;9.00;93.60
15105;DHT22;7653;48.994;9.212;2023-05-02T04:58:58;8.90;94.40
15105;DHT22;7653;48.994;9.212;2023-05-02T05:01:24;8.90;95.00
15105;DHT22;7653;48.994;9.212;2023-05-02T05:03:52;9.00;95.50
15105;DHT22;7653;48.994;9.212;2023-05-02T05:06:18;9.10;96.00
15105;DHT22;7653;48.994;9.212;2023-05-02T05:08:44;9.40;95.70
15105;DHT22;7653;48.994;9.212;2023-05-02T05:11:10;9.30;94.80
15105;DHT22;7653;48.994;9.212;2023-05-02T05:13:36;9.30;94.70
15105;DHT22;7653;48.994;9.212;2023-05-02T05:16:02;9.20;94.70
15105;DHT22;7653;48.994;9.212;2023-05-02T05:18:29;9.20;95.00
15105;DHT22;7653;48.994;9.212;2023-05-02T05:20:55;9.20;95.50
15105;DHT22;7653;48.994;9.212;2023-05-02T05:23:21;9.30;96.20
15105;DHT22;7653;48.994;9.212;2023-05-02T05:25:46;9.50;96.20
15105;DHT22;7653;48.994;9.212;2023-05-02T05:28:12;9.60;96.20
15105;DHT22;7653;48.994;9.212;2023-05-02T05:30:38;9.70;95.20
15105;DHT22;7653;48.994;9.212;2023-05-02T05:33:04;9.90;95.40
15105;DHT22;7653;48.994;9.212;2023-05-02T05:35:29;10.10;93.80
15105;DHT22;7653;48.994;9.212;2023-05-02T05:37:57;10.30;91.60
15105;DHT22;7653;48.994;9.212;2023-05-02T05:40:22;10.30;89.80
15105;DHT22;7653;48.994;9.212;2023-05-02T05:42:48;10.30;88.30
15105;DHT22;7653;48.994;9.212;2023-05-02T05:45:14;10.30;88.30
15105;DHT22;7653;48.994;9.212;2023-05-02T05:47:41;10.30;90.00
15105;DHT22;7653;48.994;9.212;2023-05-02T05:50:07;10.40;90.20
15105;DHT22;7653;48.994;9.212;2023-05-02T05:52:33;10.50;90.40
15105;DHT22;7653;48.994;9.212;2023-05-02T05:54:58;10.70;90.20
15105;DHT22;7653;48.994;9.212;2023-05-02T05:57:24;10.80;87.50
15105;DHT22;7653;48.994;9.212;2023-05-02T05:59:50;10.90;84.90
15105;DHT22;7653;48.994;9.212;2023-05-02T06:02:16;11.00;84.40
15105;DHT22;7653;48.994;9.212;2023-05-02T06:04:42;11.10;80.90
15105;DHT22;7653;48.994;9.212;2023-05-02T06:07:07;11.10;79.90
15105;DHT22;7653;48.994;9.212;2023-05-02T06:09:33;11.10;80.40
15105;DHT22;7653;48.994;9.212;2023-05-02T06:12:00;11.10;80.70
15105;DHT22;7653;48.994;9.212;2023-05-02T06:14:26;11.20;80.00
15105;DHT22;7653;48.994;9.212;2023-05-02T06:16:52;11.00;84.30
15105;DHT22;7653;48.994;9.212;2023-05-02T06:19:17;11.00;86.00
15105;DHT22;7653;48.994;9.212;2023-05-02T06:21:43;11.00;83.00
15105;DHT22;7653;48.994;9.212;2023-05-02T06:24:09;11.20;86.00
15105;DHT22;7653;48.994;9.212;2023-05-02T06:26:34;11.20;82.50
15105;DHT22;7653;48.994;9.212;2023-05-02T06:29:00;11.30;82.60
15105;DHT22;7653;48.994;9.212;2023-05-02T06:31:26;11.50;76.50
15105;DHT22;7653;48.994;9.212;2023-05-02T06:33:52;11.50;74.40
15105;DHT22;7653;48.994;9.212;2023-05-02T06:36:18;11.60;71.00
15105;DHT22;7653;48.994;9.212;2023-05-02T06:38:43;11.70;70.20
15105;DHT22;7653;48.994;9.212;2023-05-02T06:41:12;11.70;70.10
15105;DHT22;7653;48.994;9.212;2023-05-02T06:43:39;11.70;70.10
15105;DHT22;7653;48.994;9.212;2023-05-02T06:46:05;11.40;70.80
15105;DHT22;7653;48.994;9.212;2023-05-02T06:48:30;11.20;74.00
15105;DHT22;7653;48.994;9.212;2023-05-02T06:50:56;11.40;77.20
15105;DHT22;7653;48.994;9.212;2023-05-02T06:53:22;11.70;74.30
15105;DHT22;7653;48.994;9.212;2023-05-02T06:55:47;12.00;70.80
15105;DHT22;7653;48.994;9.212;2023-05-02T06:58:13;12.10;70.60
15105;DHT22;7653;48.994;9.212;2023-05-02T07:00:39;12.30;67.50
15105;DHT22;7653;48.994;9.212;2023-05-02T07:03:05;11.90;67.60
15105;DHT22;7653;48.994;9.212;2023-05-02T07:05:31;12.10;66.70
15105;DHT22;7653;48.994;9.212;2023-05-02T07:07:56;12.40;66.00
15105;DHT22;7653;48.994;9.212;2023-05-02T07:10:22;12.40;64.70
15105;DHT22;7653;48.994;9.212;2023-05-02T07:12:47;12.20;66.80
15105;DHT22;7653;48.994;9.212;2023-05-02T07:15:13;12.10;63.30
15105;DHT22;7653;48.994;9.212;2023-05-02T07:17:40;12.00;62.70
15105;DHT22;7653;48.994;9.212;2023-05-02T07:20:07;12.00;62.60
15105;DHT22;7653;48.994;9.212;2023-05-02T07:22:33;11.80;62.60
15105;DHT22;7653;48.994;9.212;2023-05-02T07:25:01;11.90;64.10
15105;DHT22;7653;48.994;9.212;2023-05-02T07:27:27;11.90;61.80
15105;DHT22;7653;48.994;9.212;2023-05-02T07:29:52;11.90;63.50
15105;DHT22;7653;48.994;9.212;2023-05-02T07:32:19;11.90;61.60
15105;DHT22;7653;48.994;9.212;2023-05-02T07:34:46;12.10;61.80
15105;DHT22;7653;48.994;9.212;2023-05-02T07:37:12;12.20;59.00
15105;DHT22;7653;48.994;9.212;2023-05-02T07:39:37;12.20;59.90
15105;DHT22;7653;48.994;9.212;2023-05-02T07:42:03;12.30;60.80
15105;DHT22;7653;48.994;9.212;2023-05-02T07:44:29;12.50;59.60
15105;DHT22;7653;48.994;9.212;2023-05-02T07:46:54;12.40;59.10
15105;DHT22;7653;48.994;9.212;2023-05-02T07:49:20;12.40;59.40
15105;DHT22;7653;48.994;9.212;2023-05-02T07:51:46;12.40;61.60
15105;DHT22;7653;48.994;9.212;2023-05-02T07:54:18;12.30;60.80
15105;DHT22;7653;48.994;9.212;2023-05-02T07:56:44;12.40;57.90
15105;DHT22;7653;48.994;9.212;2023-05-02T07:59:11;12.40;59.40
15105;DHT22;7653;48.994;9.212;2023-05-02T08:01:39;12.60;57.50
15105;DHT22;7653;48.994;9.212;2023-05-02T08:04:04;12.80;57.20
15105;DHT22;7653;48.994;9.212;2023-05-02T08:06:30;12.50;57.90
15105;DHT22;7653;48.994;9.212;2023-05-02T08:08:57;12.50;59.50
15105;DHT22;7653;48.994;9.212;2023-05-02T08:11:23;12.80;57.40
15105;DHT22;7653;48.994;9.212;2023-05-02T08:13:53;12.90;55.40
15105;DHT22;7653;48.994;9.212;2023-05-02T08:16:19;13.00;54.00
15105;DHT22;7653;48.994;9.212;2023-05-02T08:18:45;13.00;53.80
15105;DHT22;7653;48.994;9.212;2023-05-02T08:21:11;13.30;53.40
15105;DHT22;7653;48.994;9.212;2023-05-02T08:23:37;13.00;53.10
15105;DHT22;7653;48.994;9.212;2023-05-02T08:26:03;13.00;53.10
15105;DHT22;7653;48.994;9.212;2023-05-02T08:28:29;13.00;53.10
15105;DHT22;7653;48.994;9.212;2023-05-02T08:30:55;13.50;50.40
15105;DHT22;7653;48.994;9.212;2023-05-02T08:33:22;14.00;48.50
15105;DHT22;7653;48.994;9.212;2023-05-02T08:35:48;14.20;49.40
15105;DHT22;7653;48.994;9.212;2023-05-02T08:38:13;14.40;46.10
15105;DHT22;7653;48.994;9.212;2023-05-02T08:40:39;14.40;44.60
15105;DHT22;7653;48.994;9.212;2023-05-02T08:43:05;14.10;46.50
15105;DHT22;7653;48.994;9.212;2023-05-02T08:45:34;14.10;46.80
15105;DHT22;7653;48.994;9.212;2023-05-02T08:48:08;14.30;46.10
15105;DHT22;7653;48.994;9.212;2023-05-02T08:50:38;14.40;44.60
15105;DHT22;7653;48.994;9.212;2023-05-02T08:53:07;14.30;46.60
15105;DHT22;7653;48.994;9.212;2023-05-02T08:55:37;14.60;44.80
15105;DHT22;7653;48.994;9.212;2023-05-02T08:58:07;14.60;44.70
15105;DHT22;7653;48.994;9.212;2023-05-02T09:00:37;14.10;46.80
15105;DHT22;7653;48.994;9.212;2023-05-02T09:03:37;14.30;45.10
15105;DHT22;7653;48.994;9.212;2023-05-02T09:06:04;14.50;44.70
15105;DHT22;7653;48.994;9.212;2023-05-02T09:08:31;14.50;44.10
15105;DHT22;7653;48.994;9.212;2023-05-02T09:10:57;14.50;44.70
15105;DHT22;7653;48.994;9.212;2023-05-02T09:18:47;14.40;43.40
15105;DHT22;7653;48.994;9.212;2023-05-02T09:21:58;14.60;41.20
15105;DHT22;7653;48.994;9.212;2023-05-02T09:24:21;14.50;42.20
15105;DHT22;7653;48.994;9.212;2023-05-02T09:29:27;15.10;39.40
15105;DHT22;7653;48.994;9.212;2023-05-02T09:32:01;15.00;40.50
15105;DHT22;7653;48.994;9.212;2023-05-02T09:34:28;15.00;40.60
15105;DHT22;7653;48.994;9.212;2023-05-02T09:36:55;15.20;40.90
15105;DHT22;7653;48.994;9.212;2023-05-02T09:39:26;15.30;37.20
15105;DHT22;7653;48.994;9.212;2023-05-02T09:41:56;15.30;35.40
15105;DHT22;7653;48.994;9.212;2023-05-02T09:44:24;15.30;35.40
15105;DHT22;7653;48.994;9.212;2023-05-02T09:46:54;14.80;36.10
15105;DHT22;7653;48.994;9.212;2023-05-02T09:49:40;15.10;37.30
15105;DHT22;7653;48.994;9.212;2023-05-02T09:52:16;15.40;35.50
15105;DHT22;7653;48.994;9.212;2023-05-02T09:54:43;15.80;35.80
15105;DHT22;7653;48.994;9.212;2023-05-02T09:57:08;15.70;36.40
15105;DHT22;7653;48.994;9.212;2023-05-02T09:59:35;15.40;40.00
15105;DHT22;7653;48.994;9.212;2023-05-02T10:02:02;16.00;38.10
15105;DHT22;7653;48.994;9.212;2023-05-02T10:04:30;16.50;35.10
15105;DHT22;7653;48.994;9.212;2023-05-02T10:06:56;16.60;34.50
15105;DHT22;7653;48.994;9.212;2023-05-02T10:09:22;16.70;37.60
15105;DHT22;7653;48.994;9.212;2023-05-02T10:11:53;17.10;31.80
15105;DHT22;7653;48.994;9.212;2023-05-02T10:14:21;17.00;30.80
15105;DHT22;7653;48.994;9.212;2023-05-02T10:17:00;16.40;33.60
15105;DHT22;7653;48.994;9.212;2023-05-02T10:19:38;16.40;31.20
15105;DHT22;7653;48.994;9.212;2023-05-02T10:22:07;17.20;30.20
15105;DHT22;7653;48.994;9.212;2023-05-02T10:24:33;16.90;28.70
15105;DHT22;7653;48.994;9.212;2023-05-02T10:26:59;16.40;31.20
15105;DHT22;7653;48.994;9.212;2023-05-02T10:29:30;17.00;30.30
15105;DHT22;7653;48.994;9.212;2023-05-02T10:32:00;16.80;29.70
15105;DHT22;7653;48.994;9.212;2023-05-02T10:34:31;16.60;30.00
15105;DHT22;7653;48.994;9.212;2023-05-02T10:36:57;16.70;28.10
15105;DHT22;7653;48.994;9.212;2023-05-02T10:39:26;16.60;28.80
15105;DHT22;7653;48.994;9.212;2023-05-02T10:41:54;16.90;28.70
15105;DHT22;7653;48.994;9.212;2023-05-02T10:44:40;17.00;28.90
15105;DHT22;7653;48.994;9.212;2023-05-02T10:47:25;16.80;31.50
15105;DHT22;7653;48.994;9.212;2023-05-02T10:52:32;16.50;30.00
15105;DHT22;7653;48.994;9.212;2023-05-02T10:55:14;16.80;30.60
15105;DHT22;7653;48.994;9.212;2023-05-02T11:00:25;17.40;28.80
15105;DHT22;7653;48.994;9.212;2023-05-02T11:02:51;17.50;29.30
15105;DHT22;7653;48.994;9.212;2023-05-02T11:05:16;17.90;28.00
15105;DHT22;7653;48.994;9.212;2023-05-02T11:07:42;18.20;27.50
15105;DHT22;7653;48.994;9.212;2023-05-02T11:15:09;18.10;26.30
15105;DHT22;7653;48.994;9.212;2023-05-02T11:20:27;18.00;26.00
15105;DHT22;7653;48.994;9.212;2023-05-02T11:22:54;18.00;27.30
15105;DHT22;7653;48.994;9.212;2023-05-02T11:25:30;18.00;26.40
15105;DHT22;7653;48.994;9.212;2023-05-02T11:27:56;17.20;27.50
15105;DHT22;7653;48.994;9.212;2023-05-02T11:30:38;17.10;28.20
15105;DHT22;7653;48.994;9.212;2023-05-02T11:35:30;17.10;27.40
15105;DHT22;7653;48.994;9.212;2023-05-02T11:38:00;16.80;27.40
15105;DHT22;7653;48.994;9.212;2023-05-02T11:40:29;16.20;28.40
15105;DHT22;7653;48.994;9.212;2023-05-02T11:42:57;16.00;29.20
15105;DHT22;7653;48.994;9.212;2023-05-02T11:45:36;16.10;27.10
15105;DHT22;7653;48.994;9.212;2023-05-02T11:48:05;16.30;27.90
15105;DHT22;7653;48.994;9.212;2023-05-02T11:50:52;16.40;29.30
15105;DHT22;7653;48.994;9.212;2023-05-02T11:53:20;16.50;31.00
15105;DHT22;7653;48.994;9.212;2023-05-02T11:55:58;16.50;29.90
15105;DHT22;7653;48.994;9.212;2023-05-02T11:58:25;16.00;28.60
15105;DHT22;7653;48.994;9.212;2023-05-02T12:00:54;15.90;30.00
15105;DHT22;7653;48.994;9.212;2023-05-02T12:03:27;16.00;30.80
15105;DHT22;7653;48.994;9.212;2023-05-02T12:05:53;15.90;30.80
15105;DHT22;7653;48.994;9.212;2023-05-02T12:08:20;15.90;32.20
15105;DHT22;7653;48.994;9.212;2023-05-02T12:10:46;15.80;30.70
15105;DHT22;7653;48.994;9.212;2023-05-02T12:13:12;15.80;29.90
15105;DHT22;7653;48.994;9.212;2023-05-02T12:15:37;16.20;29.10
15105;DHT22;7653;48.994;9.212;2023-05-02T12:18:03;16.30;28.10
15105;DHT22;7653;48.994;9.212;2023-05-02T12:20:29;16.20;26.90
15105;DHT22;7653;48.994;9.212;2023-05-02T12:22:55;16.50;27.00
15105;DHT22;7653;48.994;9.212;2023-05-02T12:25:21;16.40;26.90
15105;DHT22;7653;48.994;9.212;2023-05-02T12:28:00;16.40;26.90
15105;DHT22;7653;48.994;9.212;2023-05-02T12:30:27;16.50;27.00
15105;DHT22;7653;48.994;9.212;2023-05-02T12:32:59;16.60;27.10
15105;DHT22;7653;48.994;9.212;2023-05-02T12:35:26;16.80;27.20
15105;DHT22;7653;48.994;9.212;2023-05-02T12:37:52;17.10;26.40
15105;DHT22;7653;48.994;9.212;2023-05-02T12:40:21;16.90;26.50
15105;DHT22;7653;48.994;9.212;2023-05-02T12:43:00;17.00;26.40
15105;DHT22;7653;48.994;9.212;2023-05-02T12:45:29;16.80;27.20
15105;DHT22;7653;48.994;9.212;2023-05-02T12:48:05;17.00;27.40
15105;DHT22;7653;48.994;9.212;2023-05-02T12:50:41;16.90;27.30
15105;DHT22;7653;48.994;9.212;2023-05-02T12:53:07;17.60;26.30
15105;DHT22;7653;48.994;9.212;2023-05-02T12:55:33;17.70;24.60
15105;DHT22;7653;48.994;9.212;2023-05-02T12:58:04;17.00;25.60
15105;DHT22;7653;48.994;9.212;2023-05-02T13:00:31;16.90;26.60
15105;DHT22;7653;48.994;9.212;2023-05-02T13:02:57;16.60;26.70
15105;DHT22;7653;48.994;9.212;2023-05-02T13:05:23;16.80;27.20
15105;DHT22;7653;48.994;9.212;2023-05-02T13:07:49;16.80;27.80
15105;DHT22;7653;48.994;9.212;2023-05-02T13:10:14;16.80;26.70
15105;DHT22;7653;48.994;9.212;2023-05-02T13:12:43;16.40;26.70
15105;DHT22;7653;48.994;9.212;2023-05-02T13:15:09;16.50;25.70
15105;DHT22;7653;48.994;9.212;2023-05-02T13:17:35;16.50;26.10
15105;DHT22;7653;48.994;9.212;2023-05-02T13:20:01;16.60;25.90
15105;DHT22;7653;48.994;9.212;2023-05-02T13:22:27;16.50;26.60
15105;DHT22;7653;48.994;9.212;2023-05-02T13:24:53;16.60;25.50
15105;DHT22;7653;48.994;9.212;2023-05-02T13:27:21;16.90;25.70
15105;DHT22;7653;48.994;9.212;2023-05-02T13:29:48;17.10;23.30
15105;DHT22;7653;48.994;9.212;2023-05-02T13:32:13;17.40;23.60
15105;DHT22;7653;48.994;9.212;2023-05-02T13:34:39;17.20;22.30
15105;DHT22;7653;48.994;9.212;2023-05-02T13:37:05;17.50;20.60
15105;DHT22;7653;48.994;9.212;2023-05-02T13:39:30;17.60;20.30
15105;DHT22;7653;48.994;9.212;2023-05-02T13:41:56;17.20;20.80
15105;DHT22;7653;48.994;9.212;2023-05-02T13:44:22;17.30;22.10
15105;DHT22;7653;48.994;9.212;2023-05-02T13:46:47;18.10;21.50
15105;DHT22;7653;48.994;9.212;2023-05-02T13:49:13;18.30;20.20
15105;DHT22;7653;48.994;9.212;2023-05-02T13:51:39;18.80;20.40
15105;DHT22;7653;48.994;9.212;2023-05-02T13:54:05;19.60;18.40
15105;DHT22;7653;48.994;9.212;2023-05-02T13:56:30;19.90;16.90
15105;DHT22;7653;48.994;9.212;2023-05-02T13:58:56;19.20;18.70
15105;DHT22;7653;48.994;9.212;2023-05-02T14:01:22;19.20;20.20
15105;DHT22;7653;48.994;9.212;2023-05-02T14:03:48;20.10;17.00
15105;DHT22;7653;48.994;9.212;2023-05-02T14:06:14;20.70;16.10
15105;DHT22;7653;48.994;9.212;2023-05-02T14:08:40;19.90;15.80
15105;DHT22;7653;48.994;9.212;2023-05-02T14:11:06;20.50;14.50
15105;DHT22;7653;48.994;9.212;2023-05-02T14:13:32;20.90;13.80
15105;DHT22;7653;48.994;9.212;2023-05-02T14:15:57;21.70;13.00
15105;DHT22;7653;48.994;9.212;2023-05-02T14:18:23;21.40;12.90
15105;DHT22;7653;48.994;9.212;2023-05-02T14:20:49;21.30;12.60
15105;DHT22;7653;48.994;9.212;2023-05-02T14:23:15;20.90;13.20
15105;DHT22;7653;48.994;9.212;2023-05-02T14:25:40;20.50;12.40
15105;DHT22;7653;48.994;9.212;2023-05-02T14:28:06;20.90;12.30
15105;DHT22;7653;48.994;9.212;2023-05-02T14:30:32;20.20;12.80
15105;DHT22;7653;48.994;9.212;2023-05-02T14:32:57;20.90;12.70
15105;DHT22;7653;48.994;9.212;2023-05-02T14:35:23;21.00;14.10
15105;DHT22;7653;48.994;9.212;2023-05-02T14:37:49;20.80;14.20
15105;DHT22;7653;48.994;9.212;2023-05-02T14:40:15;20.00;14.50
15105;DHT22;7653;48.994;9.212;2023-05-02T14:42:41;20.30;14.60
15105;DHT22;7653;48.994;9.212;2023-05-02T14:45:10;19.60;16.00
15105;DHT22;7653;48.994;9.212;2023-05-02T14:47:36;19.80;14.40
15105;DHT22;7653;48.994;9.212;2023-05-02T14:50:02;19.80;15.40
15105;DHT22;7653;48.994;9.212;2023-05-02T14:52:29;20.40;16.60
15105;DHT22;7653;48.994;9.212;2023-05-02T14:54:57;21.10;14.90
15105;DHT22;7653;48.994;9.212;2023-05-02T14:57:23;21.90;13.70
15105;DHT22;7653;48.994;9.212;2023-05-02T14:59:48;21.90;12.70
15105;DHT22;7653;48.994;9.212;2023-05-02T15:02:14;21.30;14.00
15105;DHT22;7653;48.994;9.212;2023-05-02T15:04:40;20.70;13.20
15105;DHT22;7653;48.994;9.212;2023-05-02T15:07:05;20.30;15.20
15105;DHT22;7653;48.994;9.212;2023-05-02T15:09:31;19.90;13.60
15105;DHT22;7653;48.994;9.212;2023-05-02T15:11:57;20.30;14.30
15105;DHT22;7653;48.994;9.212;2023-05-02T15:14:23;20.20;12.80
15105;DHT22;7653;48.994;9.212;2023-05-02T15:16:48;20.10;14.20
15105;DHT22;7653;48.994;9.212;2023-05-02T15:19:14;20.40;13.00
15105;DHT22;7653;48.994;9.212;2023-05-02T15:21:40;20.10;15.00
15105;DHT22;7653;48.994;9.212;2023-05-02T15:24:05;19.70;15.70
15105;DHT22;7653;48.994;9.212;2023-05-02T15:26:32;19.90;13.90
15105;DHT22;7653;48.994;9.212;2023-05-02T15:28:57;19.30;14.50
15105;DHT22;7653;48.994;9.212;2023-05-02T15:31:23;19.70;14.50
15105;DHT22;7653;48.994;9.212;2023-05-02T15:33:50;19.60;13.30
15105;DHT22;7653;48.994;9.212;2023-05-02T15:36:16;20.00;12.60
15105;DHT22;7653;48.994;9.212;2023-05-02T15:38:42;19.70;12.40
15105;DHT22;7653;48.994;9.212;2023-05-02T15:41:09;18.70;11.70
15105;DHT22;7653;48.994;9.212;2023-05-02T15:43:36;18.60;12.80
15105;DHT22;7653;48.994;9.212;2023-05-02T15:46:04;19.10;13.50
15105;DHT22;7653;48.994;9.212;2023-05-02T15:48:30;18.90;12.70
15105;DHT22;7653;48.994;9.212;2023-05-02T15:50:59;19.00;13.70
15105;DHT22;7653;48.994;9.212;2023-05-02T15:53:25;19.30;9.10
15105;DHT22;7653;48.994;9.212;2023-05-02T15:55:51;19.30;7.70
15105;DHT22;7653;48.994;9.212;2023-05-02T15:58:17;19.00;8.50
15105;DHT22;7653;48.994;9.212;2023-05-02T16:00:44;18.90;9.50
15105;DHT22;7653;48.994;9.212;2023-05-02T16:03:10;18.80;10.90
15105;DHT22;7653;48.994;9.212;2023-05-02T16:05:36;18.60;7.40
15105;DHT22;7653;48.994;9.212;2023-05-02T16:08:02;18.80;7.50
15105;DHT22;7653;48.994;9.212;2023-05-02T16:10:28;19.20;7.30
15105;DHT22;7653;48.994;9.212;2023-05-02T16:12:54;19.50;6.50
15105;DHT22;7653;48.994;9.212;2023-05-02T16:15:20;18.70;7.40
15105;DHT22;7653;48.994;9.212;2023-05-02T16:17:46;18.40;7.20
15105;DHT22;7653;48.994;9.212;2023-05-02T16:20:14;18.80;7.50
15105;DHT22;7653;48.994;9.212;2023-05-02T16:22:46;18.30;7.10
15105;DHT22;7653;48.994;9.212;2023-05-02T16:25:13;19.10;6.10
15105;DHT22;7653;48.994;9.212;2023-05-02T16:27:39;19.20;6.80
15105;DHT22;7653;48.994;9.212;2023-05-02T16:30:05;19.20;6.30
15105;DHT22;7653;48.994;9.212;2023-05-02T16:32:32;19.00;6.70
15105;DHT22;7653;48.994;9.212;2023-05-02T16:34:57;18.90;7.50
15105;DHT22;7653;48.994;9.212;2023-05-02T16:37:23;19.00;7.20
15105;DHT22;7653;48.994;9.212;2023-05-02T16:39:49;19.40;7.30
15105;DHT22;7653;48.994;9.212;2023-05-02T16:42:14;19.00;7.60
15105;DHT22;7653;48.994;9.212;2023-05-02T16:44:40;19.00;7.90